createdAt,value
2022-09-28T00:00:57.110Z,2.05
2022-09-28T00:04:00.438Z,2.13
2022-09-28T00:07:03.646Z,2.26
2022-09-28T00:10:07.124Z,2.44
2022-09-28T00:13:10.422Z,2.63
2022-09-28T00:16:16.356Z,2.73
2022-09-28T00:19:19.379Z,2.76
2022-09-28T00:22:22.416Z,2.70
2022-09-28T00:25:25.654Z,2.70
2022-09-28T00:28:28.617Z,2.73
2022-09-28T00:31:34.185Z,2.79
2022-09-28T00:34:41.297Z,2.87
2022-09-28T00:37:44.337Z,2.98
2022-09-28T00:40:47.423Z,3.17
2022-09-28T00:43:50.645Z,3.33
2022-09-28T00:47:20.074Z,3.53
2022-09-28T00:50:32.690Z,3.80
2022-09-28T00:53:38.818Z,4.10
2022-09-28T00:56:45.583Z,4.38
2022-09-28T00:59:50.074Z,4.50
2022-09-28T01:02:53.347Z,4.59
2022-09-28T01:05:59.890Z,4.67
2022-09-28T01:09:06.501Z,4.78
2022-09-28T01:12:09.707Z,4.77
2022-09-28T01:15:12.898Z,4.62
2022-09-28T01:18:39.202Z,4.57
2022-09-28T01:21:53.832Z,4.61
2022-09-28T01:25:34.832Z,4.72
2022-09-28T01:28:39.276Z,4.92
2022-09-28T01:31:47.267Z,4.96
2022-09-28T01:35:15.638Z,4.93
2022-09-28T01:38:26.284Z,5.04
2022-09-28T01:41:32.219Z,5.18
2022-09-28T01:44:40.505Z,5.47
2022-09-28T01:47:47.882Z,5.79
2022-09-28T01:50:55.464Z,6.09
2022-09-28T01:54:06.582Z,6.31
2022-09-28T01:57:35.914Z,6.57
2022-09-28T02:00:43.770Z,6.67
2022-09-28T02:03:57.772Z,6.84
2022-09-28T02:07:09.536Z,7.14
2022-09-28T02:10:24.435Z,7.48
2022-09-28T02:13:33.648Z,7.77
2022-09-28T02:16:45.625Z,8.00
2022-09-28T02:19:49.374Z,8.15
2022-09-28T02:22:58.204Z,8.41
2022-09-28T02:26:09.848Z,8.55
2022-09-28T02:29:13.573Z,8.65
2022-09-28T02:32:17.952Z,8.83
2022-09-28T02:35:21.818Z,8.98
2022-09-28T02:38:25.179Z,9.24
2022-09-28T02:41:28.154Z,9.62
2022-09-28T02:44:44.681Z,10.08
2022-09-28T02:48:07.381Z,10.30
2022-09-28T02:51:48.463Z,10.41
2022-09-28T02:54:58.182Z,10.64
2022-09-28T02:58:23.725Z,10.96
2022-09-28T03:01:35.781Z,11.13
2022-09-28T03:04:43.070Z,11.13
2022-09-28T03:08:01.116Z,11.00
2022-09-28T03:11:37.292Z,10.86
2022-09-28T03:14:40.544Z,10.90
2022-09-28T03:17:44.265Z,11.02
2022-09-28T03:20:50.293Z,11.05
2022-09-28T03:23:53.411Z,11.01
2022-09-28T03:26:56.666Z,10.89
2022-09-28T03:29:59.990Z,10.81
2022-09-28T03:33:03.751Z,10.56
2022-09-28T03:36:10.174Z,10.52
2022-09-28T03:39:14.004Z,10.59
2022-09-28T03:42:17.215Z,10.70
2022-09-28T03:45:24.426Z,10.87
2022-09-28T03:48:35.506Z,10.95
2022-09-28T03:51:38.698Z,10.97
2022-09-28T03:54:44.643Z,11.04
2022-09-28T03:57:59.271Z,11.12
2022-09-28T04:01:05.069Z,11.18
2022-09-28T04:04:08.344Z,11.24
2022-09-28T04:07:11.442Z,11.26
2022-09-28T04:10:14.588Z,11.26
2022-09-28T04:13:17.613Z,11.29
2022-09-28T04:16:22.666Z,11.25
2022-09-28T04:19:51.806Z,11.32
2022-09-28T04:23:01.772Z,11.38
2022-09-28T04:26:07.328Z,11.48
2022-09-28T04:29:17.515Z,11.54
2022-09-28T04:32:39.832Z,11.69
2022-09-28T04:35:43.285Z,11.80
2022-09-28T04:38:53.255Z,11.76
2022-09-28T04:41:58.786Z,11.84
2022-09-28T04:45:05.347Z,12.04
2022-09-28T04:48:12.247Z,12.10
2022-09-28T04:51:35.391Z,12.30
2022-09-28T04:54:38.588Z,12.47
2022-09-28T04:57:42.546Z,12.71
2022-09-28T05:00:45.753Z,12.84
2022-09-28T05:04:15.033Z,12.89
2022-09-28T05:07:36.428Z,12.92
2022-09-28T05:10:42.124Z,12.85
2022-09-28T05:13:46.517Z,12.72
2022-09-28T05:16:52.226Z,12.67
2022-09-28T05:19:58.027Z,12.62
2022-09-28T05:23:02.611Z,12.65
2022-09-28T05:26:05.907Z,12.65
2022-09-28T05:29:11.714Z,12.65
2022-09-28T05:32:20.708Z,12.52
2022-09-28T05:35:49.810Z,12.54
2022-09-28T05:38:55.952Z,12.70
2022-09-28T05:41:59.613Z,12.69
2022-09-28T05:45:04.210Z,12.61
2022-09-28T05:48:07.281Z,12.55
2022-09-28T05:51:10.925Z,12.45
2022-09-28T05:54:13.940Z,12.38
2022-09-28T05:57:21.017Z,12.27
2022-09-28T06:00:24.668Z,12.37
2022-09-28T06:03:30.506Z,12.48
2022-09-28T06:06:36.186Z,12.52
2022-09-28T06:09:39.370Z,12.46
2022-09-28T06:12:55.633Z,12.55
2022-09-28T06:15:58.702Z,12.57
2022-09-28T06:19:02.947Z,12.62
2022-09-28T06:22:24.305Z,12.61
2022-09-28T06:25:42.193Z,12.52
2022-09-28T06:28:45.408Z,12.42
2022-09-28T06:31:48.879Z,12.42
2022-09-28T06:34:56.319Z,12.60
2022-09-28T06:38:02.174Z,12.76
2022-09-28T06:41:06.590Z,12.76
2022-09-28T06:44:09.751Z,12.70
2022-09-28T06:47:32.660Z,12.52
2022-09-28T06:50:55.848Z,12.49
2022-09-28T06:54:37.515Z,12.40
2022-09-28T06:58:01.143Z,12.30
2022-09-28T07:01:06.716Z,12.24
2022-09-28T07:04:21.361Z,12.22
2022-09-28T07:07:45.366Z,12.29
2022-09-28T07:11:14.833Z,12.33
2022-09-28T07:17:58.413Z,12.53
2022-09-28T07:21:04.672Z,12.56
2022-09-28T07:24:07.909Z,12.64
2022-09-28T07:27:30.958Z,12.77
2022-09-28T07:31:03.989Z,13.11
2022-09-28T07:34:26.413Z,13.25
2022-09-28T07:37:39.352Z,13.30
2022-09-28T07:41:01.094Z,13.12
2022-09-28T07:44:07.638Z,13.08
2022-09-28T07:47:12.515Z,12.93
2022-09-28T07:50:52.939Z,12.91
2022-09-28T07:54:07.181Z,12.78
2022-09-28T07:57:30.470Z,12.72
2022-09-28T08:00:48.825Z,12.61
2022-09-28T08:03:56.912Z,12.56
2022-09-28T08:07:00.996Z,12.54
2022-09-28T08:10:05.137Z,12.42
2022-09-28T08:13:35.227Z,12.38
2022-09-28T08:16:58.329Z,12.31
2022-09-28T08:20:32.054Z,12.26
2022-09-28T08:23:35.090Z,12.18
2022-09-28T08:26:38.536Z,12.11
2022-09-28T08:29:43.643Z,12.00
2022-09-28T08:33:09.227Z,11.92
2022-09-28T08:36:18.015Z,11.84
2022-09-28T08:39:39.128Z,11.82
2022-09-28T08:43:56.032Z,11.76
2022-09-28T08:51:28.850Z,11.67
2022-09-28T08:58:36.418Z,11.54
2022-09-28T09:01:47.345Z,11.51
2022-09-28T09:04:53.425Z,11.49
2022-09-28T09:08:22.320Z,11.50
2022-09-28T09:11:58.791Z,11.27
2022-09-28T09:15:22.994Z,11.43
2022-09-28T09:18:38.809Z,11.39
2022-09-28T09:22:03.789Z,11.30
2022-09-28T09:25:38.585Z,11.20
2022-09-28T09:29:22.075Z,11.06
2022-09-28T09:32:41.833Z,10.91
2022-09-28T09:35:54.586Z,10.90
2022-09-28T09:40:03.065Z,10.84
2022-09-28T09:43:50.272Z,10.86
2022-09-28T09:47:43.768Z,10.88
2022-09-28T09:51:03.957Z,10.92
2022-09-28T09:54:19.110Z,10.92
2022-09-28T09:57:31.036Z,10.95
2022-09-28T10:00:52.446Z,10.92
2022-09-28T10:04:43.868Z,10.88
2022-09-28T10:08:05.380Z,10.84
2022-09-28T10:11:11.128Z,10.81
2022-09-28T10:14:22.190Z,10.79
2022-09-28T10:17:38.401Z,10.82
2022-09-28T10:20:59.980Z,10.81
2022-09-28T10:24:37.679Z,10.87
2022-09-28T10:27:48.080Z,10.81
2022-09-28T10:30:51.659Z,10.80
2022-09-28T10:33:58.606Z,10.77
2022-09-28T10:37:07.712Z,10.78
2022-09-28T10:40:38.158Z,10.77
2022-09-28T10:44:06.980Z,10.73
2022-09-28T10:47:20.405Z,10.78
2022-09-28T10:50:28.781Z,10.70
2022-09-28T10:54:03.438Z,10.65
2022-09-28T10:57:36.377Z,10.59
2022-09-28T11:00:43.922Z,10.54
2022-09-28T11:04:01.284Z,10.50
2022-09-28T11:07:05.590Z,10.49
2022-09-28T11:10:21.507Z,10.50
2022-09-28T11:13:26.205Z,10.48
2022-09-28T11:16:38.438Z,10.46
2022-09-28T11:19:42.798Z,10.45
2022-09-28T11:22:48.692Z,10.41
2022-09-28T11:26:08.754Z,10.39
2022-09-28T11:29:43.116Z,10.38
2022-09-28T11:33:20.751Z,10.41
2022-09-28T11:37:07.116Z,10.37
2022-09-28T11:40:18.989Z,10.33
2022-09-28T11:43:43.585Z,10.29
2022-09-28T11:47:04.720Z,10.30
2022-09-28T11:50:24.622Z,10.24
2022-09-28T11:53:36.191Z,10.20
2022-09-28T11:56:43.552Z,10.15
2022-09-28T12:00:00.973Z,10.13
2022-09-28T12:03:24.350Z,10.11
2022-09-28T12:06:45.926Z,10.14
2022-09-28T12:10:01.898Z,10.09
2022-09-28T12:13:12.565Z,10.09
2022-09-28T12:17:00.530Z,10.09
2022-09-28T12:20:00.414Z,10.13
2022-09-28T12:23:14.031Z,10.10
2022-09-28T12:26:27.533Z,10.07
2022-09-28T12:29:35.636Z,10.03
2022-09-28T12:33:04.822Z,10.03
2022-09-28T12:36:26.864Z,10.02
2022-09-28T12:39:56.607Z,10.04
2022-09-28T12:43:01.969Z,10.02
2022-09-28T12:46:14.238Z,10.02
2022-09-28T12:50:20.003Z,9.98
2022-09-28T12:52:56.084Z,9.99
2022-09-28T12:56:25.855Z,10.01
2022-09-28T12:59:45.763Z,10.02
2022-09-28T13:03:10.141Z,9.99
2022-09-28T13:06:31.260Z,10.01
2022-09-28T13:09:55.455Z,10.00
2022-09-28T13:13:25.060Z,10.03
2022-09-28T13:16:38.768Z,10.02
2022-09-28T13:20:15.141Z,10.04
2022-09-28T13:23:57.890Z,10.01
2022-09-28T13:27:16.537Z,9.98
2022-09-28T13:30:20.054Z,9.97
2022-09-28T13:33:37.381Z,10.00
2022-09-28T13:36:47.191Z,10.02
2022-09-28T13:39:58.926Z,10.00
2022-09-28T13:43:19.597Z,10.00
2022-09-28T13:46:45.881Z,9.95
2022-09-28T13:50:25.297Z,9.92
2022-09-28T13:54:08.588Z,9.87
2022-09-28T13:57:18.681Z,9.75
2022-09-28T14:00:25.971Z,9.72
2022-09-28T14:03:57.552Z,9.66
2022-09-28T14:07:17.292Z,9.61
2022-09-28T14:10:22.114Z,9.59
2022-09-28T14:13:43.689Z,9.55
2022-09-28T14:16:47.323Z,9.50
2022-09-28T14:20:11.096Z,9.55
2022-09-28T14:23:40.112Z,9.55
2022-09-28T14:27:15.342Z,9.60
2022-09-28T14:30:23.479Z,9.66
2022-09-28T14:33:33.076Z,9.70
2022-09-28T14:37:06.882Z,9.68
2022-09-28T14:40:37.737Z,9.62
2022-09-28T14:43:46.992Z,9.55
2022-09-28T14:46:50.127Z,9.49
2022-09-28T14:50:02.383Z,9.50
2022-09-28T14:53:14.480Z,9.52
2022-09-28T14:56:20.203Z,9.55
2022-09-28T14:59:25.652Z,9.54
2022-09-28T15:02:33.864Z,9.57
2022-09-28T15:05:45.066Z,9.58
2022-09-28T15:08:48.135Z,9.58
2022-09-28T15:11:58.107Z,9.59
2022-09-28T15:15:08.820Z,9.63
2022-09-28T15:18:26.234Z,9.62
2022-09-28T15:21:39.432Z,9.55
2022-09-28T15:24:55.242Z,9.52
2022-09-28T15:28:04.066Z,9.49
2022-09-28T15:31:07.435Z,9.48
2022-09-28T15:34:52.456Z,9.53
2022-09-28T15:37:56.539Z,9.51
2022-09-28T15:41:03.355Z,9.53
2022-09-28T15:44:09.033Z,9.50
2022-09-28T15:47:25.806Z,9.42
2022-09-28T15:50:30.581Z,9.32
2022-09-28T15:53:34.565Z,9.31
2022-09-28T15:57:06.910Z,9.31
2022-09-28T16:00:22.129Z,9.32
2022-09-28T16:03:29.965Z,9.35
2022-09-28T16:06:33.082Z,9.39
2022-09-28T16:09:54.499Z,9.42
2022-09-28T16:13:09.100Z,9.44
2022-09-28T16:16:17.473Z,9.45
2022-09-28T16:19:25.569Z,9.34
2022-09-28T16:22:29.030Z,9.30
2022-09-28T16:25:38.034Z,9.40
2022-09-28T16:28:41.402Z,9.44
2022-09-28T16:31:51.996Z,9.35
2022-09-28T16:35:19.413Z,9.07
2022-09-28T16:38:22.489Z,8.92
2022-09-28T16:41:29.705Z,8.92
2022-09-28T16:44:36.940Z,8.89
2022-09-28T16:47:41.217Z,8.95
2022-09-28T16:50:45.794Z,8.99
2022-09-28T16:54:18.204Z,8.99
2022-09-28T16:57:21.280Z,9.04
2022-09-28T17:00:26.435Z,9.12
2022-09-28T17:03:29.842Z,9.13
2022-09-28T17:06:33.477Z,9.09
2022-09-28T17:09:36.599Z,9.00
2022-09-28T17:12:39.738Z,8.91
2022-09-28T17:15:43.717Z,8.85
2022-09-28T17:18:48.645Z,8.77
2022-09-28T17:21:52.973Z,8.74
2022-09-28T17:24:55.981Z,8.65
2022-09-28T17:27:59.539Z,8.57
2022-09-28T17:31:03.542Z,8.53
2022-09-28T17:34:07.050Z,8.48
2022-09-28T17:37:15.390Z,8.49
2022-09-28T17:40:28.955Z,8.53
2022-09-28T17:43:31.994Z,8.59
2022-09-28T17:46:38.424Z,8.62
2022-09-28T17:49:44.307Z,8.65
2022-09-28T17:52:53.146Z,8.65
2022-09-28T17:55:56.476Z,8.58
2022-09-28T17:59:05.602Z,8.51
2022-09-28T18:02:12.312Z,8.44
2022-09-28T18:05:15.739Z,8.39
2022-09-28T18:08:20.947Z,8.39
2022-09-28T18:11:24.309Z,8.40
2022-09-28T18:14:27.684Z,8.43
2022-09-28T18:17:30.719Z,8.45
2022-09-28T18:20:35.819Z,8.46
2022-09-28T18:23:39.726Z,8.41
2022-09-28T18:26:42.701Z,8.39
2022-09-28T18:29:45.660Z,8.37
2022-09-28T18:32:48.817Z,8.37
2022-09-28T18:35:54.493Z,8.38
2022-09-28T18:38:57.975Z,8.36
2022-09-28T18:42:01.158Z,8.36
2022-09-28T18:45:11.406Z,8.39
2022-09-28T18:48:14.471Z,8.34
2022-09-28T18:51:17.465Z,8.34
2022-09-28T18:54:20.576Z,8.32
2022-09-28T18:57:23.564Z,8.33
2022-09-28T19:00:26.987Z,8.35
2022-09-28T19:03:30.409Z,8.36
2022-09-28T19:06:34.980Z,8.38
2022-09-28T19:09:38.347Z,8.39
2022-09-28T19:12:41.450Z,8.42
2022-09-28T19:15:44.693Z,8.39
2022-09-28T19:18:48.971Z,8.39
2022-09-28T19:21:51.991Z,8.41
2022-09-28T19:24:55.341Z,8.35
2022-09-28T19:27:58.391Z,8.36
2022-09-28T19:31:03.501Z,8.38
2022-09-28T19:34:08.243Z,8.41
2022-09-28T19:37:12.371Z,8.41
2022-09-28T19:40:15.429Z,8.39
2022-09-28T19:43:21.817Z,8.39
2022-09-28T19:46:25.103Z,8.39
2022-09-28T19:49:33.519Z,8.39
2022-09-28T19:52:36.939Z,8.40
2022-09-28T19:55:41.475Z,8.39
2022-09-28T19:58:44.643Z,8.42
2022-09-28T20:01:48.074Z,8.43
2022-09-28T20:04:51.066Z,8.44
2022-09-28T20:07:54.248Z,8.42
2022-09-28T20:11:00.213Z,8.41
2022-09-28T20:14:03.669Z,8.40
2022-09-28T20:17:06.712Z,8.47
2022-09-28T20:20:09.809Z,8.42
2022-09-28T20:23:13.267Z,8.38
2022-09-28T20:26:17.034Z,8.36
2022-09-28T20:29:20.341Z,8.32
2022-09-28T20:32:23.480Z,8.29
2022-09-28T20:35:33.046Z,8.24
2022-09-28T20:38:40.965Z,8.25
2022-09-28T20:41:44.100Z,8.19
2022-09-28T20:44:47.162Z,8.20
2022-09-28T20:47:50.183Z,8.18
2022-09-28T20:51:03.622Z,8.12
2022-09-28T20:54:06.739Z,8.03
2022-09-28T20:57:18.707Z,7.92
2022-09-28T21:00:22.068Z,7.82
2022-09-28T21:03:25.590Z,7.78
2022-09-28T21:06:31.086Z,7.77
2022-09-28T21:09:34.275Z,7.74
2022-09-28T21:12:38.058Z,7.68
2022-09-28T21:15:41.155Z,7.61
2022-09-28T21:18:45.006Z,7.60
2022-09-28T21:21:48.193Z,7.59
2022-09-28T21:24:51.193Z,7.59
2022-09-28T21:27:54.318Z,7.56
2022-09-28T21:30:57.604Z,7.54
2022-09-28T21:34:01.349Z,7.51
2022-09-28T21:37:04.332Z,7.50
2022-09-28T21:40:10.414Z,7.50
2022-09-28T21:43:13.629Z,7.52
2022-09-28T21:46:18.155Z,7.49
2022-09-28T21:49:21.202Z,7.45
2022-09-28T21:52:24.240Z,7.48
2022-09-28T21:55:27.215Z,7.43
2022-09-28T21:58:32.337Z,7.38
2022-09-28T22:01:35.477Z,7.35
2022-09-28T22:04:38.589Z,7.38
2022-09-28T22:07:43.297Z,7.37
2022-09-28T22:10:46.414Z,7.41
2022-09-28T22:13:55.443Z,7.43
2022-09-28T22:16:58.420Z,7.36
2022-09-28T22:20:01.751Z,7.35
2022-09-28T22:23:04.746Z,7.30
2022-09-28T22:26:20.284Z,7.36
2022-09-28T22:29:24.558Z,7.34
2022-09-28T22:32:28.097Z,7.36
2022-09-28T22:35:31.480Z,7.34
2022-09-28T22:38:35.831Z,7.33
2022-09-28T22:41:38.793Z,7.31
2022-09-28T22:44:41.659Z,7.28
2022-09-28T22:47:44.754Z,7.28
2022-09-28T22:50:52.398Z,7.30
2022-09-28T22:53:55.471Z,7.28
2022-09-28T22:56:58.422Z,7.29
2022-09-28T23:00:01.651Z,7.29
2022-09-28T23:03:05.312Z,7.29
2022-09-28T23:06:09.592Z,7.29
2022-09-28T23:09:12.727Z,7.28
2022-09-28T23:12:15.744Z,7.27
2022-09-28T23:15:18.783Z,7.29
2022-09-28T23:18:21.790Z,7.29
2022-09-28T23:21:26.666Z,7.33
2022-09-28T23:24:29.672Z,7.36
2022-09-28T23:27:32.580Z,7.34
2022-09-28T23:30:36.044Z,7.33
2022-09-28T23:33:39.055Z,7.33
2022-09-28T23:36:42.283Z,7.39
2022-09-28T23:39:45.246Z,7.39
2022-09-28T23:42:48.248Z,7.40
2022-09-28T23:45:51.267Z,7.41
2022-09-28T23:48:54.414Z,7.45
2022-09-28T23:51:57.364Z,7.57
2022-09-28T23:55:00.320Z,7.66
2022-09-28T23:58:03.255Z,7.70
